createdAt,value
2023-04-17T00:00:54.022Z,0.00
2023-04-17T00:01:54.147Z,0.00
2023-04-17T00:02:54.180Z,0.00
2023-04-17T00:03:54.103Z,0.00
2023-04-17T00:04:54.245Z,0.00
2023-04-17T00:05:54.026Z,0.00
2023-04-17T00:06:54.091Z,0.00
2023-04-17T00:07:53.955Z,0.00
2023-04-17T00:08:53.944Z,0.00
2023-04-17T00:09:53.933Z,0.00
2023-04-17T00:11:00.691Z,0.00
2023-04-17T00:11:53.900Z,0.00
2023-04-17T00:12:53.894Z,0.00
2023-04-17T00:13:53.884Z,0.00
2023-04-17T00:14:53.875Z,0.00
2023-04-17T00:15:53.888Z,0.00
2023-04-17T00:16:53.926Z,0.00
2023-04-17T00:17:53.880Z,0.00
2023-04-17T00:18:53.826Z,0.00
2023-04-17T00:19:53.818Z,0.00
2023-04-17T00:20:53.863Z,0.00
2023-04-17T00:21:53.794Z,0.00
2023-04-17T00:22:53.782Z,0.00
2023-04-17T00:23:53.766Z,0.00
2023-04-17T00:24:53.754Z,0.00
2023-04-17T00:25:53.754Z,0.00
2023-04-17T00:26:53.737Z,0.00
2023-04-17T00:27:53.730Z,0.00
2023-04-17T00:28:53.716Z,0.00
2023-04-17T00:29:53.705Z,0.00
2023-04-17T00:30:53.702Z,0.00
2023-04-17T00:31:53.770Z,0.00
2023-04-17T00:32:53.784Z,0.00
2023-04-17T00:33:53.663Z,0.00
2023-04-17T00:34:55.613Z,0.00
2023-04-17T00:35:53.639Z,0.00
2023-04-17T00:36:53.647Z,0.00
2023-04-17T00:37:53.612Z,0.00
2023-04-17T00:38:53.599Z,0.00
2023-04-17T00:39:53.589Z,0.00
2023-04-17T00:40:53.592Z,0.00
2023-04-17T00:41:53.566Z,0.00
2023-04-17T00:42:53.567Z,0.00
2023-04-17T00:43:53.548Z,0.00
2023-04-17T00:44:53.558Z,0.00
2023-04-17T00:45:53.579Z,0.00
2023-04-17T00:46:53.516Z,0.00
2023-04-17T00:47:53.523Z,0.00
2023-04-17T00:48:53.499Z,0.00
2023-04-17T00:49:53.474Z,0.00
2023-04-17T00:50:53.473Z,0.00
2023-04-17T00:51:53.465Z,0.00
2023-04-17T00:52:53.471Z,0.00
2023-04-17T00:53:53.448Z,0.00
2023-04-17T00:54:53.427Z,0.00
2023-04-17T00:55:53.428Z,0.00
2023-04-17T00:56:53.409Z,0.00
2023-04-17T00:57:53.496Z,0.00
2023-04-17T00:58:53.383Z,0.00
2023-04-17T00:59:53.381Z,0.00
2023-04-17T01:00:53.367Z,0.00
2023-04-17T01:01:53.436Z,0.00
2023-04-17T01:02:53.401Z,0.00
2023-04-17T01:03:53.465Z,0.00
2023-04-17T01:04:53.318Z,0.00
2023-04-17T01:05:53.298Z,0.00
2023-04-17T01:06:53.290Z,0.00
2023-04-17T01:07:53.273Z,0.00
2023-04-17T01:08:53.286Z,0.00
2023-04-17T01:09:53.254Z,0.00
2023-04-17T01:10:53.250Z,0.00
2023-04-17T01:11:53.243Z,0.00
2023-04-17T01:12:53.223Z,0.00
2023-04-17T01:13:53.202Z,0.00
2023-04-17T01:14:53.199Z,0.00
2023-04-17T01:15:53.231Z,0.00
2023-04-17T01:16:53.211Z,0.00
2023-04-17T01:17:53.173Z,0.00
2023-04-17T01:18:53.152Z,0.00
2023-04-17T01:19:53.150Z,0.00
2023-04-17T01:20:53.128Z,0.00
2023-04-17T01:21:53.128Z,0.00
2023-04-17T01:22:53.121Z,0.00
2023-04-17T01:23:53.375Z,0.00
2023-04-17T01:24:53.101Z,0.00
2023-04-17T01:25:53.070Z,0.00
2023-04-17T01:26:53.066Z,0.00
2023-04-17T01:27:53.061Z,0.00
2023-04-17T01:28:53.064Z,0.00
2023-04-17T01:29:53.037Z,0.00
2023-04-17T01:30:53.026Z,0.00
2023-04-17T01:31:53.016Z,0.00
2023-04-17T01:32:53.036Z,0.00
2023-04-17T01:33:52.974Z,0.00
2023-04-17T01:34:52.971Z,0.00
2023-04-17T01:35:52.963Z,0.00
2023-04-17T01:36:52.952Z,0.00
2023-04-17T01:37:52.938Z,0.00
2023-04-17T01:38:52.934Z,0.00
2023-04-17T01:39:52.913Z,0.00
2023-04-17T01:40:52.918Z,0.00
2023-04-17T01:41:52.923Z,0.00
2023-04-17T01:42:52.898Z,0.00
2023-04-17T01:43:52.872Z,0.00
2023-04-17T01:44:52.859Z,0.00
2023-04-17T01:45:52.954Z,0.00
2023-04-17T01:46:52.842Z,0.00
2023-04-17T01:47:52.890Z,0.00
2023-04-17T01:48:52.816Z,0.00
2023-04-17T01:49:52.802Z,0.00
2023-04-17T01:50:52.801Z,0.00
2023-04-17T01:51:52.776Z,0.00
2023-04-17T01:52:52.768Z,0.00
2023-04-17T01:53:52.769Z,0.00
2023-04-17T01:54:52.740Z,0.00
2023-04-17T01:55:52.733Z,0.00
2023-04-17T01:56:52.750Z,0.00
2023-04-17T01:57:52.708Z,0.00
2023-04-17T01:58:52.707Z,0.00
2023-04-17T01:59:52.683Z,0.00
2023-04-17T02:00:52.686Z,0.00
2023-04-17T02:01:52.784Z,0.00
2023-04-17T02:02:52.874Z,0.00
2023-04-17T02:03:52.824Z,0.00
2023-04-17T02:04:52.646Z,0.00
2023-04-17T02:05:52.628Z,0.00
2023-04-17T02:06:52.622Z,0.00
2023-04-17T02:07:52.595Z,0.00
2023-04-17T02:08:52.593Z,0.00
2023-04-17T02:09:52.578Z,0.00
2023-04-17T02:10:52.563Z,0.00
2023-04-17T02:11:52.546Z,0.00
2023-04-17T02:12:52.568Z,0.00
2023-04-17T02:13:52.543Z,0.00
2023-04-17T02:14:52.523Z,0.00
2023-04-17T02:15:52.563Z,0.00
2023-04-17T02:16:52.486Z,0.00
2023-04-17T02:17:52.517Z,0.00
2023-04-17T02:18:52.470Z,0.00
2023-04-17T02:19:52.455Z,0.00
2023-04-17T02:20:52.444Z,0.00
2023-04-17T02:21:52.451Z,0.00
2023-04-17T02:22:52.421Z,0.00
2023-04-17T02:23:52.418Z,0.00
2023-04-17T02:24:52.403Z,0.00
2023-04-17T02:25:52.394Z,0.00
2023-04-17T02:26:52.376Z,0.00
2023-04-17T02:27:52.364Z,0.00
2023-04-17T02:28:52.385Z,0.00
2023-04-17T02:29:52.341Z,0.00
2023-04-17T02:30:52.356Z,0.00
2023-04-17T02:31:52.339Z,0.00
2023-04-17T02:32:52.331Z,0.00
2023-04-17T02:33:52.304Z,0.00
2023-04-17T02:34:52.283Z,0.00
2023-04-17T02:35:52.275Z,0.00
2023-04-17T02:36:52.268Z,0.00
2023-04-17T02:37:52.260Z,0.00
2023-04-17T02:38:52.236Z,0.00
2023-04-17T02:39:52.242Z,0.00
2023-04-17T02:40:52.220Z,0.00
2023-04-17T02:41:52.212Z,0.00
2023-04-17T02:42:52.209Z,0.00
2023-04-17T02:43:52.190Z,0.00
2023-04-17T02:44:52.205Z,0.00
2023-04-17T02:45:52.166Z,0.00
2023-04-17T02:46:52.189Z,0.00
2023-04-17T02:47:52.210Z,0.00
2023-04-17T02:48:52.130Z,0.00
2023-04-17T02:49:52.136Z,0.00
2023-04-17T02:50:52.112Z,0.00
2023-04-17T02:51:52.108Z,0.00
2023-04-17T02:52:52.094Z,0.00
2023-04-17T02:53:52.068Z,0.00
2023-04-17T02:54:52.066Z,0.00
2023-04-17T02:55:52.059Z,0.00
2023-04-17T02:56:52.039Z,0.00
2023-04-17T02:57:52.031Z,0.00
2023-04-17T02:58:52.021Z,0.00
2023-04-17T02:59:52.020Z,0.00
2023-04-17T03:00:52.080Z,0.00
2023-04-17T03:01:52.071Z,0.00
2023-04-17T03:02:52.053Z,0.00
2023-04-17T03:03:52.107Z,0.00
2023-04-17T03:04:51.952Z,0.00
2023-04-17T03:05:51.934Z,0.00
2023-04-17T03:06:51.930Z,0.00
2023-04-17T03:07:51.924Z,0.00
2023-04-17T03:08:51.898Z,0.00
2023-04-17T03:09:51.899Z,0.00
2023-04-17T03:10:51.874Z,0.00
2023-04-17T03:11:51.868Z,0.00
2023-04-17T03:12:51.855Z,0.00
2023-04-17T03:13:51.837Z,0.00
2023-04-17T03:14:51.833Z,0.00
2023-04-17T03:15:51.880Z,0.00
2023-04-17T03:16:51.984Z,0.00
2023-04-17T03:17:51.824Z,0.00
2023-04-17T03:18:51.794Z,0.00
2023-04-17T03:19:51.781Z,0.00
2023-04-17T03:20:51.757Z,0.00
2023-04-17T03:21:51.757Z,0.00
2023-04-17T03:22:51.749Z,0.00
2023-04-17T03:23:51.719Z,0.00
2023-04-17T03:24:51.717Z,0.00
2023-04-17T03:25:51.713Z,0.00
2023-04-17T03:26:51.698Z,0.00
2023-04-17T03:27:51.693Z,0.00
2023-04-17T03:28:51.665Z,0.00
2023-04-17T03:29:51.659Z,0.00
2023-04-17T03:30:51.648Z,0.00
2023-04-17T03:31:51.703Z,0.00
2023-04-17T03:32:51.675Z,0.00
2023-04-17T03:33:51.629Z,0.00
2023-04-17T03:34:51.596Z,0.00
2023-04-17T03:35:51.595Z,0.00
2023-04-17T03:36:51.570Z,0.00
2023-04-17T03:37:51.562Z,0.00
2023-04-17T03:38:51.554Z,0.00
2023-04-17T03:39:51.542Z,0.00
2023-04-17T03:40:51.531Z,4.00
2023-04-17T03:41:51.518Z,4.00
2023-04-17T03:42:51.509Z,4.00
2023-04-17T03:43:51.498Z,0.00
2023-04-17T03:44:51.485Z,4.00
2023-04-17T03:45:53.511Z,4.00
2023-04-17T03:46:51.456Z,4.00
2023-04-17T03:47:51.477Z,4.00
2023-04-17T03:48:51.462Z,4.00
2023-04-17T03:49:51.421Z,4.00
2023-04-17T03:50:51.414Z,8.00
2023-04-17T03:51:51.407Z,4.00
2023-04-17T03:52:51.395Z,8.00
2023-04-17T03:53:53.379Z,12.00
2023-04-17T03:54:51.359Z,8.00
2023-04-17T03:55:51.361Z,12.00
2023-04-17T03:56:51.334Z,12.00
2023-04-17T03:57:51.329Z,12.00
2023-04-17T03:58:51.309Z,16.00
2023-04-17T03:59:51.297Z,16.00
2023-04-17T04:00:51.287Z,16.00
2023-04-17T04:01:53.305Z,20.00
2023-04-17T04:02:51.407Z,20.00
2023-04-17T04:03:51.315Z,24.00
2023-04-17T04:04:51.319Z,24.00
2023-04-17T04:05:51.226Z,28.00
2023-04-17T04:06:51.210Z,28.00
2023-04-17T04:07:51.202Z,32.00
2023-04-17T04:08:51.201Z,36.00
2023-04-17T04:09:51.193Z,36.00
2023-04-17T04:10:51.178Z,40.00
2023-04-17T04:11:51.167Z,40.00
2023-04-17T04:12:53.145Z,44.00
2023-04-17T04:13:51.136Z,44.00
2023-04-17T04:14:51.130Z,48.00
2023-04-17T04:15:51.157Z,52.00
2023-04-17T04:16:51.104Z,56.00
2023-04-17T04:17:51.113Z,60.00
2023-04-17T04:18:51.080Z,68.00
2023-04-17T04:19:51.069Z,76.00
2023-04-17T04:20:51.226Z,80.00
2023-04-17T04:21:51.046Z,92.00
2023-04-17T04:22:53.026Z,100.00
2023-04-17T04:23:51.031Z,108.00
2023-04-17T04:24:51.004Z,116.00
2023-04-17T04:25:52.999Z,124.00
2023-04-17T04:26:52.986Z,132.00
2023-04-17T04:27:50.978Z,140.00
2023-04-17T04:28:50.960Z,152.00
2023-04-17T04:29:50.951Z,164.00
2023-04-17T04:30:51.187Z,176.00
2023-04-17T04:31:51.113Z,188.00
2023-04-17T04:32:50.948Z,196.00
2023-04-17T04:33:50.902Z,208.00
2023-04-17T04:34:50.895Z,224.00
2023-04-17T04:35:50.892Z,236.00
2023-04-17T04:36:50.909Z,248.00
2023-04-17T04:37:50.866Z,260.00
2023-04-17T04:38:50.878Z,276.00
2023-04-17T04:39:50.838Z,292.00
2023-04-17T04:40:50.832Z,304.00
2023-04-17T04:41:50.836Z,320.00
2023-04-17T04:42:50.825Z,340.00
2023-04-17T04:43:50.791Z,352.00
2023-04-17T04:44:50.771Z,368.00
2023-04-17T04:45:50.767Z,384.00
2023-04-17T04:46:50.796Z,400.00
2023-04-17T04:47:50.819Z,416.00
2023-04-17T04:48:50.737Z,428.00
2023-04-17T04:49:50.717Z,444.00
2023-04-17T04:50:50.710Z,460.00
2023-04-17T04:51:50.700Z,476.00
2023-04-17T04:52:50.708Z,500.00
2023-04-17T04:53:50.672Z,516.00
2023-04-17T04:54:50.654Z,544.00
2023-04-17T04:55:50.681Z,572.00
2023-04-17T04:56:50.641Z,596.00
2023-04-17T04:57:50.643Z,628.00
2023-04-17T04:58:50.619Z,664.00
2023-04-17T04:59:50.604Z,720.00
2023-04-17T05:00:50.738Z,764.00
2023-04-17T05:01:50.670Z,776.00
2023-04-17T05:02:50.736Z,744.00
2023-04-17T05:03:50.688Z,684.00
2023-04-17T05:04:50.552Z,704.00
2023-04-17T05:05:50.565Z,620.00
2023-04-17T05:06:50.528Z,580.00
2023-04-17T05:07:50.506Z,556.00
2023-04-17T05:08:50.541Z,520.00
2023-04-17T05:09:50.484Z,520.00
2023-04-17T05:10:50.474Z,564.00
2023-04-17T05:11:50.476Z,588.00
2023-04-17T05:12:50.454Z,572.00
2023-04-17T05:13:50.449Z,560.00
2023-04-17T05:14:50.441Z,516.00
2023-04-17T05:15:50.431Z,496.00
2023-04-17T05:16:50.439Z,496.00
2023-04-17T05:17:50.463Z,504.00
2023-04-17T05:18:50.391Z,520.00
2023-04-17T05:19:50.376Z,508.00
2023-04-17T05:20:50.457Z,496.00
2023-04-17T05:21:50.354Z,476.00
2023-04-17T05:22:50.343Z,476.00
2023-04-17T05:23:50.388Z,464.00
2023-04-17T05:24:50.339Z,452.00
2023-04-17T05:25:50.329Z,464.00
2023-04-17T05:26:50.391Z,460.00
2023-04-17T05:27:50.279Z,460.00
2023-04-17T05:28:50.276Z,456.00
2023-04-17T05:29:50.255Z,448.00
2023-04-17T05:30:50.244Z,476.00
2023-04-17T05:31:50.324Z,476.00
2023-04-17T05:32:50.288Z,488.00
2023-04-17T05:33:50.227Z,508.00
2023-04-17T05:34:50.203Z,496.00
2023-04-17T05:35:50.185Z,472.00
2023-04-17T05:36:50.179Z,456.00
2023-04-17T05:37:50.164Z,504.00
2023-04-17T05:38:50.171Z,500.00
2023-04-17T05:39:50.135Z,496.00
2023-04-17T05:40:50.184Z,476.00
2023-04-17T05:41:50.111Z,480.00
2023-04-17T05:42:50.111Z,508.00
2023-04-17T05:43:50.099Z,528.00
2023-04-17T05:44:50.107Z,548.00
2023-04-17T05:45:50.093Z,580.00
2023-04-17T05:46:50.064Z,592.00
2023-04-17T05:47:50.073Z,612.00
2023-04-17T05:48:50.047Z,632.00
2023-04-17T05:49:50.017Z,588.00
2023-04-17T05:50:50.001Z,560.00
2023-04-17T05:51:50.007Z,544.00
2023-04-17T05:52:49.981Z,536.00
2023-04-17T05:53:49.987Z,572.00
2023-04-17T05:54:49.958Z,600.00
2023-04-17T05:55:49.952Z,572.00
2023-04-17T05:56:49.987Z,520.00
2023-04-17T05:57:49.923Z,488.00
2023-04-17T05:58:49.919Z,492.00
2023-04-17T05:59:49.907Z,544.00
2023-04-17T06:00:49.890Z,540.00
2023-04-17T06:01:49.923Z,568.00
2023-04-17T06:02:50.028Z,584.00
2023-04-17T06:03:50.079Z,608.00
2023-04-17T06:04:50.089Z,608.00
2023-04-17T06:05:49.891Z,544.00
2023-04-17T06:06:49.833Z,512.00
2023-04-17T06:07:49.816Z,536.00
2023-04-17T06:08:49.815Z,536.00
2023-04-17T06:09:49.791Z,540.00
2023-04-17T06:10:49.782Z,528.00
2023-04-17T06:11:49.769Z,524.00
2023-04-17T06:12:49.894Z,556.00
2023-04-17T06:13:49.748Z,520.00
2023-04-17T06:14:49.828Z,500.00
2023-04-17T06:15:49.717Z,508.00
2023-04-17T06:16:49.718Z,528.00
2023-04-17T06:17:49.803Z,556.00
2023-04-17T06:18:49.681Z,596.00
2023-04-17T06:19:49.679Z,616.00
2023-04-17T06:20:49.866Z,640.00
2023-04-17T06:21:49.654Z,704.00
2023-04-17T06:22:49.662Z,776.00
2023-04-17T06:23:49.727Z,772.00
2023-04-17T06:24:49.616Z,808.00
2023-04-17T06:25:49.636Z,888.00
2023-04-17T06:26:49.599Z,868.00
2023-04-17T06:27:49.583Z,876.00
2023-04-17T06:28:49.588Z,936.00
2023-04-17T06:29:49.573Z,956.00
2023-04-17T06:30:49.558Z,996.00
2023-04-17T06:31:49.531Z,984.00
2023-04-17T06:32:49.549Z,1024.00
2023-04-17T06:33:49.508Z,1164.00
2023-04-17T06:34:58.981Z,1092.00
2023-04-17T06:35:49.498Z,1036.00
2023-04-17T06:36:49.476Z,1104.00
2023-04-17T06:37:49.462Z,1092.00
2023-04-17T06:38:49.458Z,988.00
2023-04-17T06:39:49.441Z,980.00
2023-04-17T06:40:50.801Z,1028.00
2023-04-17T06:41:49.413Z,1096.00
2023-04-17T06:42:49.417Z,1172.00
2023-04-17T06:43:49.395Z,1228.00
2023-04-17T06:44:49.402Z,1392.00
2023-04-17T06:45:49.383Z,1532.00
2023-04-17T06:46:49.456Z,1740.00
2023-04-17T06:47:49.390Z,1784.00
2023-04-17T06:48:49.338Z,1596.00
2023-04-17T06:49:49.337Z,1808.00
2023-04-17T06:50:49.315Z,1892.00
2023-04-17T06:51:49.303Z,1896.00
2023-04-17T06:52:49.291Z,1760.00
2023-04-17T06:53:49.293Z,1772.00
2023-04-17T06:54:49.262Z,2040.00
2023-04-17T06:55:49.255Z,1992.00
2023-04-17T06:56:49.245Z,1660.00
2023-04-17T06:57:49.237Z,1712.00
2023-04-17T06:58:49.232Z,1752.00
2023-04-17T06:59:49.210Z,1528.00
2023-04-17T07:00:49.220Z,1372.00
2023-04-17T07:01:49.201Z,1332.00
2023-04-17T07:02:49.257Z,1192.00
2023-04-17T07:03:49.358Z,1216.00
2023-04-17T07:04:49.427Z,1192.00
2023-04-17T07:05:49.142Z,1156.00
2023-04-17T07:06:49.128Z,1208.00
2023-04-17T07:07:49.118Z,1124.00
2023-04-17T07:08:49.098Z,1156.00
2023-04-17T07:09:49.113Z,1140.00
2023-04-17T07:10:49.091Z,1332.00
2023-04-17T07:11:49.080Z,1244.00
2023-04-17T07:12:49.056Z,1272.00
2023-04-17T07:13:49.044Z,1228.00
2023-04-17T07:14:49.037Z,1340.00
2023-04-17T07:15:49.136Z,1228.00
2023-04-17T07:16:49.182Z,1160.00
2023-04-17T07:17:49.030Z,1260.00
2023-04-17T07:18:48.989Z,1120.00
2023-04-17T07:19:48.981Z,1012.00
2023-04-17T07:20:48.960Z,988.00
2023-04-17T07:21:48.958Z,988.00
2023-04-17T07:22:48.950Z,1136.00
2023-04-17T07:23:48.985Z,1364.00
2023-04-17T07:24:48.928Z,1320.00
2023-04-17T07:25:48.920Z,1300.00
2023-04-17T07:26:48.892Z,1356.00
2023-04-17T07:27:48.877Z,1384.00
2023-04-17T07:28:48.871Z,1316.00
2023-04-17T07:29:48.863Z,1184.00
2023-04-17T07:30:48.857Z,1108.00
2023-04-17T07:31:48.891Z,1056.00
2023-04-17T07:32:48.974Z,1068.00
2023-04-17T07:33:48.832Z,1000.00
2023-04-17T07:34:48.818Z,912.00
2023-04-17T07:35:48.812Z,864.00
2023-04-17T07:36:48.780Z,812.00
2023-04-17T07:37:48.768Z,784.00
2023-04-17T07:38:48.768Z,800.00
2023-04-17T07:39:48.766Z,816.00
2023-04-17T07:40:48.745Z,816.00
2023-04-17T07:41:48.722Z,868.00
2023-04-17T07:42:48.714Z,952.00
2023-04-17T07:43:48.701Z,1016.00
2023-04-17T07:44:48.695Z,1052.00
2023-04-17T07:45:48.684Z,1076.00
2023-04-17T07:46:48.776Z,1120.00
2023-04-17T07:47:48.732Z,1152.00
2023-04-17T07:48:48.671Z,1132.00
2023-04-17T07:49:48.679Z,1092.00
2023-04-17T07:50:48.631Z,1068.00
2023-04-17T07:51:48.620Z,1092.00
2023-04-17T07:52:48.597Z,1104.00
2023-04-17T07:53:48.594Z,1080.00
2023-04-17T07:54:48.588Z,1056.00
2023-04-17T07:55:48.567Z,1060.00
2023-04-17T07:56:48.554Z,1084.00
2023-04-17T07:57:48.557Z,1116.00
2023-04-17T07:58:48.540Z,1176.00
2023-04-17T07:59:48.523Z,1232.00
2023-04-17T08:00:48.523Z,1344.00
2023-04-17T08:01:48.556Z,1472.00
2023-04-17T08:02:48.619Z,1652.00
2023-04-17T08:03:48.717Z,2292.00
2023-04-17T08:04:48.704Z,3140.00
2023-04-17T08:05:48.460Z,3468.00
2023-04-17T08:06:48.448Z,3584.00
2023-04-17T08:07:48.429Z,3576.00
2023-04-17T08:08:48.428Z,2572.00
2023-04-17T08:09:48.407Z,2144.00
2023-04-17T08:10:48.405Z,1908.00
2023-04-17T08:11:56.846Z,1760.00
2023-04-17T08:12:48.376Z,1752.00
2023-04-17T08:13:48.371Z,1872.00
2023-04-17T08:14:48.352Z,1872.00
2023-04-17T08:15:48.343Z,1912.00
2023-04-17T08:16:48.415Z,1908.00
2023-04-17T08:17:48.391Z,1948.00
2023-04-17T08:18:48.308Z,2004.00
2023-04-17T08:19:48.310Z,2064.00
2023-04-17T08:20:48.310Z,1896.00
2023-04-17T08:21:48.289Z,1776.00
2023-04-17T08:22:48.272Z,1748.00
2023-04-17T08:23:48.268Z,1712.00
2023-04-17T08:24:48.249Z,1748.00
2023-04-17T08:25:48.241Z,1860.00
2023-04-17T08:26:48.218Z,1828.00
2023-04-17T08:27:48.214Z,1668.00
2023-04-17T08:28:48.207Z,1628.00
2023-04-17T08:29:48.188Z,1700.00
2023-04-17T08:30:48.227Z,1824.00
2023-04-17T08:31:48.177Z,1876.00
2023-04-17T08:32:48.219Z,1992.00
2023-04-17T08:33:48.145Z,2136.00
2023-04-17T08:34:48.137Z,1952.00
2023-04-17T08:35:48.121Z,1832.00
2023-04-17T08:36:48.151Z,1772.00
2023-04-17T08:37:48.103Z,1716.00
2023-04-17T08:38:48.105Z,1640.00
2023-04-17T08:39:48.078Z,1560.00
2023-04-17T08:40:48.065Z,1608.00
2023-04-17T08:41:48.088Z,1720.00
2023-04-17T08:42:48.282Z,2108.00
2023-04-17T08:43:48.033Z,2476.00
2023-04-17T08:44:48.033Z,2272.00
2023-04-17T08:45:48.019Z,1812.00
2023-04-17T08:46:47.994Z,1512.00
2023-04-17T08:47:48.026Z,1400.00
2023-04-17T08:48:47.978Z,1444.00
2023-04-17T08:49:47.969Z,1584.00
2023-04-17T08:50:47.954Z,1680.00
2023-04-17T08:51:47.954Z,1500.00
2023-04-17T08:52:47.945Z,1220.00
2023-04-17T08:53:47.987Z,1128.00
2023-04-17T08:54:50.562Z,1204.00
2023-04-17T08:55:47.896Z,1408.00
2023-04-17T08:56:47.884Z,1728.00
2023-04-17T08:57:47.883Z,1824.00
2023-04-17T08:58:47.856Z,1652.00
2023-04-17T08:59:47.852Z,1524.00
2023-04-17T09:00:47.838Z,1624.00
2023-04-17T09:01:47.863Z,1512.00
2023-04-17T09:02:47.969Z,1388.00
2023-04-17T09:03:47.957Z,1312.00
2023-04-17T09:04:47.890Z,1304.00
2023-04-17T09:05:47.783Z,1260.00
2023-04-17T09:06:47.774Z,1240.00
2023-04-17T09:07:48.405Z,1256.00
2023-04-17T09:08:47.775Z,1328.00
2023-04-17T09:09:47.748Z,1408.00
2023-04-17T09:10:47.759Z,1480.00
2023-04-17T09:11:47.711Z,1552.00
2023-04-17T09:12:47.703Z,1552.00
2023-04-17T09:13:47.693Z,1492.00
2023-04-17T09:14:47.680Z,1408.00
2023-04-17T09:15:47.686Z,1360.00
2023-04-17T09:16:47.660Z,1416.00
2023-04-17T09:17:47.704Z,1428.00
2023-04-17T09:18:47.643Z,1424.00
2023-04-17T09:19:47.623Z,1448.00
2023-04-17T09:20:47.618Z,1784.00
2023-04-17T09:21:47.600Z,1872.00
2023-04-17T09:22:47.591Z,1564.00
2023-04-17T09:23:47.583Z,1328.00
2023-04-17T09:24:47.592Z,1228.00
2023-04-17T09:25:47.568Z,1252.00
2023-04-17T09:26:47.556Z,1744.00
2023-04-17T09:27:47.531Z,2444.00
2023-04-17T09:28:47.523Z,2332.00
2023-04-17T09:29:47.527Z,1672.00
2023-04-17T09:30:47.507Z,1504.00
2023-04-17T09:31:47.510Z,1892.00
2023-04-17T09:32:47.554Z,3176.00
2023-04-17T09:33:47.477Z,4676.00
2023-04-17T09:34:47.480Z,6540.00
2023-04-17T09:35:47.443Z,3984.00
2023-04-17T09:36:47.433Z,3636.00
2023-04-17T09:37:47.422Z,3612.00
2023-04-17T09:38:47.414Z,3232.00
2023-04-17T09:39:47.396Z,2760.00
2023-04-17T09:40:47.447Z,2496.00
2023-04-17T09:41:47.384Z,2360.00
2023-04-17T09:42:47.367Z,2676.00
2023-04-17T09:43:47.363Z,3572.00
2023-04-17T09:44:47.346Z,5088.00
2023-04-17T09:45:47.336Z,5932.00
2023-04-17T09:46:47.384Z,6480.00
2023-04-17T09:47:47.387Z,14524.00
2023-04-17T09:48:47.300Z,5300.00
2023-04-17T09:49:47.299Z,6008.00
2023-04-17T09:50:47.278Z,14420.00
2023-04-17T09:51:47.270Z,15592.00
2023-04-17T09:52:47.247Z,15232.00
2023-04-17T09:53:47.243Z,11420.00
2023-04-17T09:54:47.254Z,10824.00
2023-04-17T09:55:47.213Z,15072.00
2023-04-17T09:56:47.339Z,14004.00
2023-04-17T09:57:47.196Z,4616.00
2023-04-17T09:58:47.188Z,5508.00
2023-04-17T09:59:47.180Z,5416.00
2023-04-17T10:00:47.231Z,12604.00
2023-04-17T10:01:47.191Z,13420.00
2023-04-17T10:02:47.303Z,13416.00
2023-04-17T10:03:47.359Z,13572.00
2023-04-17T10:04:47.116Z,13100.00
2023-04-17T10:05:47.105Z,4340.00
2023-04-17T10:06:47.093Z,11464.00
2023-04-17T10:07:47.075Z,13008.00
2023-04-17T10:08:47.080Z,13880.00
2023-04-17T10:09:47.055Z,13872.00
2023-04-17T10:10:47.077Z,14336.00
2023-04-17T10:11:47.038Z,5120.00
2023-04-17T10:12:47.045Z,15464.00
2023-04-17T10:13:47.016Z,15232.00
2023-04-17T10:14:47.006Z,14968.00
2023-04-17T10:15:47.040Z,14152.00
2023-04-17T10:16:47.029Z,15312.00
2023-04-17T10:17:46.998Z,15620.00
2023-04-17T10:18:46.962Z,15892.00
2023-04-17T10:19:46.945Z,15580.00
2023-04-17T10:20:46.930Z,15984.00
2023-04-17T10:21:46.916Z,15704.00
2023-04-17T10:22:46.926Z,15544.00
2023-04-17T10:23:46.897Z,15848.00
2023-04-17T10:24:46.889Z,16444.00
2023-04-17T10:25:46.870Z,15460.00
2023-04-17T10:26:46.867Z,16004.00
2023-04-17T10:27:46.851Z,17112.00
2023-04-17T10:28:46.965Z,6476.00
2023-04-17T10:29:46.835Z,18560.00
2023-04-17T10:30:46.852Z,18528.00
2023-04-17T10:31:46.877Z,18720.00
2023-04-17T10:32:46.826Z,19040.00
2023-04-17T10:33:46.814Z,19232.00
2023-04-17T10:34:46.771Z,18656.00
2023-04-17T10:35:46.768Z,17704.00
2023-04-17T10:36:46.746Z,17140.00
2023-04-17T10:37:46.753Z,17032.00
2023-04-17T10:38:46.726Z,16700.00
2023-04-17T10:39:46.717Z,17056.00
2023-04-17T10:40:46.713Z,17188.00
2023-04-17T10:41:46.699Z,9768.00
2023-04-17T10:42:46.687Z,18144.00
2023-04-17T10:43:46.680Z,17072.00
2023-04-17T10:44:46.687Z,14292.00
2023-04-17T10:45:46.716Z,6152.00
2023-04-17T10:46:46.643Z,19968.00
2023-04-17T10:47:46.634Z,20640.00
2023-04-17T10:48:46.677Z,20384.00
2023-04-17T10:49:46.609Z,4036.00
2023-04-17T10:50:46.594Z,12940.00
2023-04-17T10:51:46.580Z,7060.00
2023-04-17T10:52:46.570Z,19392.00
2023-04-17T10:53:46.559Z,19328.00
2023-04-17T10:54:46.541Z,18912.00
2023-04-17T10:55:46.537Z,18688.00
2023-04-17T10:56:46.638Z,17368.00
2023-04-17T10:57:46.509Z,17536.00
2023-04-17T10:58:46.499Z,15100.00
2023-04-17T10:59:46.526Z,18272.00
2023-04-17T11:00:46.638Z,18112.00
2023-04-17T11:01:46.514Z,18624.00
2023-04-17T11:02:46.557Z,18112.00
2023-04-17T11:03:46.505Z,17608.00
2023-04-17T11:04:46.525Z,4856.00
2023-04-17T11:05:46.423Z,4892.00
2023-04-17T11:06:46.414Z,17184.00
2023-04-17T11:07:46.408Z,16648.00
2023-04-17T11:08:46.393Z,11352.00
2023-04-17T11:09:46.381Z,6176.00
2023-04-17T11:10:46.396Z,17596.00
2023-04-17T11:11:46.351Z,17788.00
2023-04-17T11:12:46.357Z,17604.00
2023-04-17T11:13:46.344Z,17396.00
2023-04-17T11:14:46.325Z,17268.00
2023-04-17T11:15:46.361Z,17056.00
2023-04-17T11:16:46.452Z,17552.00
2023-04-17T11:17:46.317Z,17600.00
2023-04-17T11:18:46.281Z,17708.00
2023-04-17T11:19:46.882Z,17836.00
2023-04-17T11:20:46.269Z,18132.00
2023-04-17T11:21:46.250Z,18560.00
2023-04-17T11:22:46.262Z,17292.00
2023-04-17T11:23:46.224Z,16940.00
2023-04-17T11:24:46.214Z,14496.00
2023-04-17T11:25:46.194Z,8156.00
2023-04-17T11:26:46.182Z,7320.00
2023-04-17T11:27:46.186Z,8088.00
2023-04-17T11:28:46.167Z,3844.00
2023-04-17T11:29:46.156Z,3296.00
2023-04-17T11:30:46.204Z,3004.00
2023-04-17T11:31:46.218Z,2924.00
2023-04-17T11:32:46.176Z,2996.00
2023-04-17T11:33:46.327Z,2912.00
2023-04-17T11:34:46.103Z,2736.00
2023-04-17T11:35:46.094Z,2668.00
2023-04-17T11:36:46.074Z,2744.00
2023-04-17T11:37:46.072Z,2816.00
2023-04-17T11:38:46.058Z,2928.00
2023-04-17T11:39:46.036Z,3172.00
2023-04-17T11:40:46.056Z,3592.00
2023-04-17T11:41:46.018Z,4064.00
2023-04-17T11:42:46.017Z,4560.00
2023-04-17T11:43:45.995Z,5180.00
2023-04-17T11:44:45.984Z,4588.00
2023-04-17T11:45:46.004Z,4888.00
2023-04-17T11:46:46.104Z,5720.00
2023-04-17T11:47:45.967Z,6916.00
2023-04-17T11:48:46.069Z,8400.00
2023-04-17T11:49:45.940Z,6584.00
2023-04-17T11:50:45.918Z,7588.00
2023-04-17T11:51:45.910Z,8980.00
2023-04-17T11:52:47.742Z,10352.00
2023-04-17T11:53:45.888Z,8540.00
2023-04-17T11:54:45.879Z,11812.00
2023-04-17T11:55:45.979Z,6924.00
2023-04-17T11:56:45.864Z,6596.00
2023-04-17T11:57:45.861Z,8444.00
2023-04-17T11:58:45.826Z,7600.00
2023-04-17T11:59:45.829Z,15420.00
2023-04-17T12:00:45.807Z,7320.00
2023-04-17T12:01:45.797Z,3672.00
2023-04-17T12:02:45.916Z,2936.00
2023-04-17T12:03:45.976Z,2708.00
2023-04-17T12:04:45.916Z,2500.00
2023-04-17T12:05:45.945Z,2556.00
2023-04-17T12:06:45.754Z,2664.00
2023-04-17T12:07:45.724Z,2824.00
2023-04-17T12:08:45.721Z,2980.00
2023-04-17T12:09:45.707Z,2976.00
2023-04-17T12:10:45.695Z,2828.00
2023-04-17T12:11:45.681Z,2704.00
2023-04-17T12:12:45.666Z,2644.00
2023-04-17T12:13:45.654Z,2652.00
2023-04-17T12:14:45.643Z,2668.00
2023-04-17T12:15:45.704Z,2640.00
2023-04-17T12:16:45.860Z,2500.00
2023-04-17T12:17:45.616Z,2256.00
2023-04-17T12:18:45.605Z,2032.00
2023-04-17T12:19:45.587Z,1848.00
2023-04-17T12:20:45.613Z,1732.00
2023-04-17T12:21:45.578Z,1676.00
2023-04-17T12:22:45.557Z,1636.00
2023-04-17T12:23:45.548Z,1616.00
2023-04-17T12:24:45.532Z,1584.00
2023-04-17T12:25:45.523Z,1560.00
2023-04-17T12:26:45.509Z,1552.00
2023-04-17T12:27:46.514Z,1528.00
2023-04-17T12:28:45.528Z,1484.00
2023-04-17T12:29:45.473Z,1420.00
2023-04-17T12:30:45.467Z,1356.00